sensor_id;sensor_type;location;lat;lon;timestamp;pressure;altitude;pressure_sealevel;temperature;humidity
70407;BME280;57821;52.202;0.154;2023-04-15T00:00:47;100960.31;;;7.12;100.00
70407;BME280;57821;52.202;0.154;2023-04-15T00:03:33;100964.63;;;7.13;100.00
70407;BME280;57821;52.202;0.154;2023-04-15T00:06:21;100968.88;;;7.11;100.00
70407;BME280;57821;52.202;0.154;2023-04-15T00:09:08;100963.72;;;7.11;100.00
70407;BME280;57821;52.202;0.154;2023-04-15T00:11:55;100966.31;;;7.10;100.00
70407;BME280;57821;52.202;0.154;2023-04-15T00:14:41;100970.56;;;7.08;100.00
70407;BME280;57821;52.202;0.154;2023-04-15T00:17:29;100967.16;;;7.09;100.00
70407;BME280;57821;52.202;0.154;2023-04-15T00:20:15;100966.25;;;7.07;100.00
70407;BME280;57821;52.202;0.154;2023-04-15T00:23:02;100960.19;;;7.01;100.00
70407;BME280;57821;52.202;0.154;2023-04-15T00:25:50;100969.69;;;7.04;100.00
70407;BME280;57821;52.202;0.154;2023-04-15T00:28:37;100965.28;;;7.00;100.00
70407;BME280;57821;52.202;0.154;2023-04-15T00:31:23;100978.25;;;7.03;100.00
70407;BME280;57821;52.202;0.154;2023-04-15T00:34:10;100974.75;;;6.99;100.00
70407;BME280;57821;52.202;0.154;2023-04-15T00:36:57;100975.63;;;7.00;100.00
70407;BME280;57821;52.202;0.154;2023-04-15T00:39:44;100977.31;;;6.98;100.00
70407;BME280;57821;52.202;0.154;2023-04-15T00:42:31;100983.34;;;6.98;100.00
70407;BME280;57821;52.202;0.154;2023-04-15T00:45:18;100982.44;;;6.96;100.00
70407;BME280;57821;52.202;0.154;2023-04-15T00:48:05;100986.75;;;6.97;100.00
70407;BME280;57821;52.202;0.154;2023-04-15T00:50:52;100994.47;;;6.96;100.00
70407;BME280;57821;52.202;0.154;2023-04-15T00:53:39;100992.69;;;6.92;100.00
70407;BME280;57821;52.202;0.154;2023-04-15T00:56:27;100992.63;;;6.89;100.00
70407;BME280;57821;52.202;0.154;2023-04-15T00:59:16;100989.19;;;6.87;100.00
70407;BME280;57821;52.202;0.154;2023-04-15T01:02:03;100989.13;;;6.84;100.00
70407;BME280;57821;52.202;0.154;2023-04-15T01:04:51;100991.72;;;6.84;100.00
70407;BME280;57821;52.202;0.154;2023-04-15T01:07:38;101001.19;;;6.85;100.00
70407;BME280;57821;52.202;0.154;2023-04-15T01:10:26;101002.03;;;6.85;100.00
70407;BME280;57821;52.202;0.154;2023-04-15T01:13:12;101011.50;;;6.85;100.00
70407;BME280;57821;52.202;0.154;2023-04-15T01:15:59;101016.63;;;6.85;100.00
70407;BME280;57821;52.202;0.154;2023-04-15T01:18:47;101011.41;;;6.82;100.00
70407;BME280;57821;52.202;0.154;2023-04-15T01:21:37;101016.56;;;6.82;100.00
70407;BME280;57821;52.202;0.154;2023-04-15T01:24:25;101026.06;;;6.81;100.00
70407;BME280;57821;52.202;0.154;2023-04-15T01:27:13;101026.06;;;6.81;100.00
70407;BME280;57821;52.202;0.154;2023-04-15T01:30:00;101032.91;;;6.82;100.00
70407;BME280;57821;52.202;0.154;2023-04-15T01:32:47;101026.88;;;6.80;100.00
70407;BME280;57821;52.202;0.154;2023-04-15T01:35:34;101036.34;;;6.81;100.00
70407;BME280;57821;52.202;0.154;2023-04-15T01:38:21;101033.78;;;6.83;100.00
70407;BME280;57821;52.202;0.154;2023-04-15T01:41:08;101032.03;;;6.82;100.00
70407;BME280;57821;52.202;0.154;2023-04-15T01:43:54;101043.22;;;6.82;100.00
70407;BME280;57821;52.202;0.154;2023-04-15T01:46:41;101048.38;;;6.82;100.00
70407;BME280;57821;52.202;0.154;2023-04-15T01:49:28;101052.66;;;6.82;100.00
70407;BME280;57821;52.202;0.154;2023-04-15T01:52:15;101046.59;;;6.78;100.00
70407;BME280;57821;52.202;0.154;2023-04-15T01:55:02;101059.44;;;6.77;100.00
70407;BME280;57821;52.202;0.154;2023-04-15T01:57:49;101063.78;;;6.78;100.00
70407;BME280;57821;52.202;0.154;2023-04-15T02:00:36;101067.16;;;6.74;100.00
70407;BME280;57821;52.202;0.154;2023-04-15T02:03:24;101061.09;;;6.72;100.00
70407;BME280;57821;52.202;0.154;2023-04-15T02:06:11;101068.91;;;6.76;100.00
70407;BME280;57821;52.202;0.154;2023-04-15T02:08:58;101074.91;;;6.77;100.00
70407;BME280;57821;52.202;0.154;2023-04-15T02:11:45;101089.56;;;6.79;100.00
70407;BME280;57821;52.202;0.154;2023-04-15T02:14:32;101083.56;;;6.79;100.00
70407;BME280;57821;52.202;0.154;2023-04-15T02:17:19;101086.16;;;6.80;100.00
70407;BME280;57821;52.202;0.154;2023-04-15T02:20:07;101092.22;;;6.84;100.00
70407;BME280;57821;52.202;0.154;2023-04-15T02:22:54;101089.69;;;6.85;100.00
70407;BME280;57821;52.202;0.154;2023-04-15T02:25:41;101100.06;;;6.90;100.00
70407;BME280;57821;52.202;0.154;2023-04-15T02:28:39;101100.13;;;6.93;100.00
70407;BME280;57821;52.202;0.154;2023-04-15T02:31:26;101110.47;;;6.96;100.00
70407;BME280;57821;52.202;0.154;2023-04-15T02:34:13;101110.50;;;6.97;100.00
70407;BME280;57821;52.202;0.154;2023-04-15T02:37:03;101118.25;;;6.99;100.00
70407;BME280;57821;52.202;0.154;2023-04-15T02:39:51;101119.19;;;7.03;100.00
70407;BME280;57821;52.202;0.154;2023-04-15T02:42:39;101125.22;;;7.03;100.00
70407;BME280;57821;52.202;0.154;2023-04-15T02:45:29;101126.94;;;7.04;100.00
70407;BME280;57821;52.202;0.154;2023-04-15T02:48:19;101130.38;;;7.03;100.00
70407;BME280;57821;52.202;0.154;2023-04-15T02:51:13;101132.97;;;7.06;100.00
70407;BME280;57821;52.202;0.154;2023-04-15T02:54:00;101137.31;;;7.07;100.00
70407;BME280;57821;52.202;0.154;2023-04-15T02:56:47;101135.63;;;7.09;100.00
70407;BME280;57821;52.202;0.154;2023-04-15T02:59:34;101135.59;;;7.08;100.00
70407;BME280;57821;52.202;0.154;2023-04-15T03:02:21;101141.69;;;7.13;100.00
70407;BME280;57821;52.202;0.154;2023-04-15T03:05:12;101150.31;;;7.15;100.00
70407;BME280;57821;52.202;0.154;2023-04-15T03:08:06;101147.78;;;7.16;100.00
70407;BME280;57821;52.202;0.154;2023-04-15T03:10:52;101152.94;;;7.16;100.00
70407;BME280;57821;52.202;0.154;2023-04-15T03:13:41;101159.00;;;7.20;100.00
70407;BME280;57821;52.202;0.154;2023-04-15T03:16:39;101160.75;;;7.22;100.00
70407;BME280;57821;52.202;0.154;2023-04-15T03:19:26;101165.03;;;7.20;100.00
70407;BME280;57821;52.202;0.154;2023-04-15T03:22:13;101167.72;;;7.26;100.00
70407;BME280;57821;52.202;0.154;2023-04-15T03:25:00;101178.06;;;7.29;100.00
70407;BME280;57821;52.202;0.154;2023-04-15T03:27:47;101176.38;;;7.31;100.00
70407;BME280;57821;52.202;0.154;2023-04-15T03:30:34;101187.63;;;7.33;100.00
70407;BME280;57821;52.202;0.154;2023-04-15T03:33:20;101191.97;;;7.37;100.00
70407;BME280;57821;52.202;0.154;2023-04-15T03:36:07;101193.72;;;7.40;100.00
70407;BME280;57821;52.202;0.154;2023-04-15T03:38:54;101199.75;;;7.40;100.00
70407;BME280;57821;52.202;0.154;2023-04-15T03:41:41;101196.31;;;7.41;100.00
70407;BME280;57821;52.202;0.154;2023-04-15T03:44:28;101202.34;;;7.42;100.00
70407;BME280;57821;52.202;0.154;2023-04-15T03:47:15;101211.88;;;7.45;100.00
70407;BME280;57821;52.202;0.154;2023-04-15T03:50:01;101213.56;;;7.46;100.00
70407;BME280;57821;52.202;0.154;2023-04-15T03:52:48;101211.88;;;7.46;100.00
70407;BME280;57821;52.202;0.154;2023-04-15T03:55:36;101220.56;;;7.50;100.00
70407;BME280;57821;52.202;0.154;2023-04-15T03:58:23;101227.41;;;7.49;100.00
70407;BME280;57821;52.202;0.154;2023-04-15T04:01:10;101229.16;;;7.50;100.00
70407;BME280;57821;52.202;0.154;2023-04-15T04:03:57;101237.78;;;7.51;100.00
70407;BME280;57821;52.202;0.154;2023-04-15T04:06:44;101244.66;;;7.52;100.00
70407;BME280;57821;52.202;0.154;2023-04-15T04:09:31;101242.94;;;7.51;100.00
70407;BME280;57821;52.202;0.154;2023-04-15T04:12:18;101249.81;;;7.52;100.00
70407;BME280;57821;52.202;0.154;2023-04-15T04:15:05;101241.19;;;7.50;100.00
70407;BME280;57821;52.202;0.154;2023-04-15T04:17:52;101253.28;;;7.54;100.00
70407;BME280;57821;52.202;0.154;2023-04-15T04:20:39;101261.91;;;7.54;100.00
70407;BME280;57821;52.202;0.154;2023-04-15T04:23:26;101260.19;;;7.55;100.00
70407;BME280;57821;52.202;0.154;2023-04-15T04:26:13;101264.47;;;7.54;100.00
70407;BME280;57821;52.202;0.154;2023-04-15T04:29:00;101270.44;;;7.52;100.00
70407;BME280;57821;52.202;0.154;2023-04-15T04:31:47;101269.53;;;7.48;100.00
70407;BME280;57821;52.202;0.154;2023-04-15T04:34:34;101280.78;;;7.52;100.00
70407;BME280;57821;52.202;0.154;2023-04-15T04:37:21;101275.59;;;7.52;100.00
70407;BME280;57821;52.202;0.154;2023-04-15T04:40:08;101284.22;;;7.51;100.00
70407;BME280;57821;52.202;0.154;2023-04-15T04:42:55;101289.31;;;7.48;100.00
70407;BME280;57821;52.202;0.154;2023-04-15T04:45:42;101292.72;;;7.47;100.00
70407;BME280;57821;52.202;0.154;2023-04-15T04:48:28;101292.72;;;7.45;100.00
70407;BME280;57821;52.202;0.154;2023-04-15T04:51:17;101290.97;;;7.46;100.00
70407;BME280;57821;52.202;0.154;2023-04-15T04:54:04;101303.00;;;7.43;100.00
70407;BME280;57821;52.202;0.154;2023-04-15T04:56:50;101309.84;;;7.41;100.00
70407;BME280;57821;52.202;0.154;2023-04-15T04:59:38;101311.56;;;7.39;100.00
70407;BME280;57821;52.202;0.154;2023-04-15T05:02:24;101325.31;;;7.41;100.00
70407;BME280;57821;52.202;0.154;2023-04-15T05:05:11;101330.44;;;7.40;100.00
70407;BME280;57821;52.202;0.154;2023-04-15T05:07:58;101334.75;;;7.39;100.00
70407;BME280;57821;52.202;0.154;2023-04-15T05:10:45;101340.75;;;7.38;100.00
70407;BME280;57821;52.202;0.154;2023-04-15T05:13:32;101338.94;;;7.34;100.00
70407;BME280;57821;52.202;0.154;2023-04-15T05:16:19;101351.94;;;7.39;100.00
70407;BME280;57821;52.202;0.154;2023-04-15T05:19:06;101357.91;;;7.36;100.00
70407;BME280;57821;52.202;0.154;2023-04-15T05:21:53;101357.91;;;7.36;100.00
70407;BME280;57821;52.202;0.154;2023-04-15T05:24:40;101373.47;;;7.39;100.00
70407;BME280;57821;52.202;0.154;2023-04-15T05:27:26;101373.47;;;7.39;100.00
70407;BME280;57821;52.202;0.154;2023-04-15T05:30:13;101374.31;;;7.38;100.00
70407;BME280;57821;52.202;0.154;2023-04-15T05:33:00;101377.75;;;7.40;100.00
70407;BME280;57821;52.202;0.154;2023-04-15T05:35:47;101390.72;;;7.43;100.00
70407;BME280;57821;52.202;0.154;2023-04-15T05:38:34;101384.63;;;7.40;100.00
70407;BME280;57821;52.202;0.154;2023-04-15T05:41:21;101388.16;;;7.43;100.00
70407;BME280;57821;52.202;0.154;2023-04-15T05:44:07;101406.25;;;7.47;100.00
70407;BME280;57821;52.202;0.154;2023-04-15T05:46:54;101412.31;;;7.49;100.00
70407;BME280;57821;52.202;0.154;2023-04-15T05:49:41;101421.81;;;7.50;100.00
70407;BME280;57821;52.202;0.154;2023-04-15T05:52:28;101427.84;;;7.50;100.00
70407;BME280;57821;52.202;0.154;2023-04-15T05:55:15;101437.41;;;7.56;100.00
70407;BME280;57821;52.202;0.154;2023-04-15T05:58:01;101451.19;;;7.58;100.00
70407;BME280;57821;52.202;0.154;2023-04-15T06:00:48;101448.66;;;7.59;100.00
70407;BME280;57821;52.202;0.154;2023-04-15T06:03:35;101465.88;;;7.60;100.00
70407;BME280;57821;52.202;0.154;2023-04-15T06:06:22;101459.91;;;7.61;100.00
70407;BME280;57821;52.202;0.154;2023-04-15T06:09:09;101471.09;;;7.62;100.00
70407;BME280;57821;52.202;0.154;2023-04-15T06:11:57;101477.97;;;7.61;100.00
70407;BME280;57821;52.202;0.154;2023-04-15T06:14:44;101482.28;;;7.64;100.00
70407;BME280;57821;52.202;0.154;2023-04-15T06:17:31;101490.94;;;7.66;100.00
70407;BME280;57821;52.202;0.154;2023-04-15T06:20:18;101497.84;;;7.67;100.00
70407;BME280;57821;52.202;0.154;2023-04-15T06:23:05;101507.34;;;7.69;100.00
70407;BME280;57821;52.202;0.154;2023-04-15T06:25:51;101510.88;;;7.73;100.00
70407;BME280;57821;52.202;0.154;2023-04-15T06:28:38;101523.84;;;7.74;100.00
70407;BME280;57821;52.202;0.154;2023-04-15T06:31:25;101530.69;;;7.74;100.00
70407;BME280;57821;52.202;0.154;2023-04-15T06:34:12;101537.66;;;7.78;100.00
70407;BME280;57821;52.202;0.154;2023-04-15T06:36:59;101531.66;;;7.79;100.00
70407;BME280;57821;52.202;0.154;2023-04-15T06:39:46;101544.56;;;7.80;100.00
70407;BME280;57821;52.202;0.154;2023-04-15T06:42:33;101542.91;;;7.82;100.00
70407;BME280;57821;52.202;0.154;2023-04-15T06:45:20;101553.28;;;7.84;100.00
70407;BME280;57821;52.202;0.154;2023-04-15T06:48:07;101551.47;;;7.80;100.00
70407;BME280;57821;52.202;0.154;2023-04-15T06:50:54;101553.28;;;7.84;100.00
70407;BME280;57821;52.202;0.154;2023-04-15T06:53:41;101545.28;;;7.72;100.00
70407;BME280;57821;52.202;0.154;2023-04-15T06:56:28;101566.97;;;7.80;100.00
70407;BME280;57821;52.202;0.154;2023-04-15T06:59:14;101563.50;;;7.79;100.00
70407;BME280;57821;52.202;0.154;2023-04-15T07:02:01;101573.84;;;7.81;100.00
70407;BME280;57821;52.202;0.154;2023-04-15T07:04:48;101576.38;;;7.78;100.00
70407;BME280;57821;52.202;0.154;2023-04-15T07:07:35;101577.28;;;7.80;100.00
70407;BME280;57821;52.202;0.154;2023-04-15T07:10:22;101588.47;;;7.79;100.00
70407;BME280;57821;52.202;0.154;2023-04-15T07:13:11;101589.34;;;7.81;100.00
70407;BME280;57821;52.202;0.154;2023-04-15T07:15:58;101602.34;;;7.84;100.00
70407;BME280;57821;52.202;0.154;2023-04-15T07:18:45;101606.66;;;7.85;100.00
70407;BME280;57821;52.202;0.154;2023-04-15T07:21:32;101607.50;;;7.84;100.00
70407;BME280;57821;52.202;0.154;2023-04-15T07:24:19;101614.50;;;7.90;100.00
70407;BME280;57821;52.202;0.154;2023-04-15T07:27:05;101618.84;;;7.92;100.00
70407;BME280;57821;52.202;0.154;2023-04-15T07:29:52;101624.06;;;7.95;100.00
70407;BME280;57821;52.202;0.154;2023-04-15T07:32:39;101629.28;;;7.98;100.00
70407;BME280;57821;52.202;0.154;2023-04-15T07:35:27;101632.91;;;8.06;100.00
70407;BME280;57821;52.202;0.154;2023-04-15T07:38:14;101644.38;;;8.19;100.00
70407;BME280;57821;52.202;0.154;2023-04-15T07:41:01;101649.81;;;8.31;100.00
70407;BME280;57821;52.202;0.154;2023-04-15T07:43:48;101652.56;;;8.40;100.00
70407;BME280;57821;52.202;0.154;2023-04-15T07:46:34;101658.81;;;8.50;100.00
70407;BME280;57821;52.202;0.154;2023-04-15T07:49:21;101659.75;;;8.55;100.00
70407;BME280;57821;52.202;0.154;2023-04-15T07:52:08;101665.03;;;8.62;100.00
70407;BME280;57821;52.202;0.154;2023-04-15T07:54:55;101666.94;;;8.71;100.00
70407;BME280;57821;52.202;0.154;2023-04-15T07:57:42;101680.88;;;8.78;100.00
70407;BME280;57821;52.202;0.154;2023-04-15T08:00:29;101682.72;;;8.86;100.00
70407;BME280;57821;52.202;0.154;2023-04-15T08:03:16;101682.84;;;8.92;100.00
70407;BME280;57821;52.202;0.154;2023-04-15T08:06:03;101687.25;;;8.98;100.00
70407;BME280;57821;52.202;0.154;2023-04-15T08:08:50;101698.56;;;9.04;100.00
70407;BME280;57821;52.202;0.154;2023-04-15T08:11:36;101708.22;;;9.13;100.00
70407;BME280;57821;52.202;0.154;2023-04-15T08:14:23;101709.22;;;9.21;100.00
70407;BME280;57821;52.202;0.154;2023-04-15T08:17:10;101715.38;;;9.28;100.00
70407;BME280;57821;52.202;0.154;2023-04-15T08:19:57;101714.63;;;9.35;100.00
70407;BME280;57821;52.202;0.154;2023-04-15T08:22:44;101721.66;;;9.42;100.00
70407;BME280;57821;52.202;0.154;2023-04-15T08:25:31;101731.22;;;9.47;100.00
70407;BME280;57821;52.202;0.154;2023-04-15T08:28:17;101740.03;;;9.59;100.00
70407;BME280;57821;52.202;0.154;2023-04-15T08:31:04;101746.25;;;9.70;100.00
70407;BME280;57821;52.202;0.154;2023-04-15T08:33:51;101736.13;;;9.83;100.00
70407;BME280;57821;52.202;0.154;2023-04-15T08:36:38;101748.44;;;10.00;100.00
70407;BME280;57821;52.202;0.154;2023-04-15T08:39:25;101759.06;;;10.16;100.00
70407;BME280;57821;52.202;0.154;2023-04-15T08:42:16;101747.94;;;10.25;100.00
70407;BME280;57821;52.202;0.154;2023-04-15T08:45:03;101768.00;;;10.38;100.00
70407;BME280;57821;52.202;0.154;2023-04-15T08:47:54;101771.53;;;10.42;100.00
70407;BME280;57821;52.202;0.154;2023-04-15T08:50:42;101780.16;;;10.44;100.00
70407;BME280;57821;52.202;0.154;2023-04-15T08:53:29;101786.22;;;10.44;100.00
70407;BME280;57821;52.202;0.154;2023-04-15T08:56:17;101786.19;;;10.40;100.00
70407;BME280;57821;52.202;0.154;2023-04-15T08:59:05;101797.53;;;10.49;100.00
70407;BME280;57821;52.202;0.154;2023-04-15T09:01:53;101813.22;;;10.58;100.00
70407;BME280;57821;52.202;0.154;2023-04-15T09:04:40;101817.69;;;10.70;100.00
70407;BME280;57821;52.202;0.154;2023-04-15T09:07:27;101813.53;;;10.83;100.00
70407;BME280;57821;52.202;0.154;2023-04-15T09:10:14;101817.13;;;10.94;100.00
70407;BME280;57821;52.202;0.154;2023-04-15T09:13:00;101815.47;;;11.02;100.00
70407;BME280;57821;52.202;0.154;2023-04-15T09:15:47;101820.78;;;11.14;100.00
70407;BME280;57821;52.202;0.154;2023-04-15T09:18:35;101824.41;;;11.27;100.00
70407;BME280;57821;52.202;0.154;2023-04-15T09:21:23;101829.75;;;11.40;100.00
70407;BME280;57821;52.202;0.154;2023-04-15T09:24:10;101827.34;;;11.62;100.00
70407;BME280;57821;52.202;0.154;2023-04-15T09:26:57;101841.50;;;11.92;100.00
70407;BME280;57821;52.202;0.154;2023-04-15T09:29:48;101841.75;;;12.30;100.00
70407;BME280;57821;52.202;0.154;2023-04-15T09:32:35;101845.50;;;12.75;100.00
70407;BME280;57821;52.202;0.154;2023-04-15T09:35:33;101850.03;;;13.15;100.00
70407;BME280;57821;52.202;0.154;2023-04-15T09:38:20;101857.00;;;13.41;100.00
70407;BME280;57821;52.202;0.154;2023-04-15T09:41:16;101860.50;;;13.43;100.00
70407;BME280;57821;52.202;0.154;2023-04-15T09:44:03;101864.84;;;13.45;100.00
70407;BME280;57821;52.202;0.154;2023-04-15T09:46:50;101867.44;;;13.47;100.00
70407;BME280;57821;52.202;0.154;2023-04-15T09:49:37;101877.03;;;13.55;100.00
70407;BME280;57821;52.202;0.154;2023-04-15T09:52:24;101882.25;;;13.66;100.00
70407;BME280;57821;52.202;0.154;2023-04-15T09:55:12;101883.13;;;13.86;100.00
70407;BME280;57821;52.202;0.154;2023-04-15T09:57:59;101877.06;;;14.12;100.00
70407;BME280;57821;52.202;0.154;2023-04-15T10:00:47;101888.34;;;14.50;100.00
70407;BME280;57821;52.202;0.154;2023-04-15T10:03:34;101884.84;;;14.72;100.00
70407;BME280;57821;52.202;0.154;2023-04-15T10:06:22;101896.09;;;14.84;100.00
70407;BME280;57821;52.202;0.154;2023-04-15T10:09:11;101899.56;;;14.87;100.00
70407;BME280;57821;52.202;0.154;2023-04-15T10:11:59;101894.38;;;14.73;100.00
70407;BME280;57821;52.202;0.154;2023-04-15T10:14:57;101886.59;;;14.58;100.00
70407;BME280;57821;52.202;0.154;2023-04-15T10:17:46;101891.75;;;14.73;100.00
70407;BME280;57821;52.202;0.154;2023-04-15T10:20:34;101898.69;;;14.93;100.00
70407;BME280;57821;52.202;0.154;2023-04-15T10:23:22;101897.81;;;14.92;100.00
70407;BME280;57821;52.202;0.154;2023-04-15T10:26:10;101895.22;;;14.82;100.00
70407;BME280;57821;52.202;0.154;2023-04-15T10:28:58;101911.78;;;14.77;100.00
70407;BME280;57821;52.202;0.154;2023-04-15T10:31:46;101912.66;;;14.73;100.00
70407;BME280;57821;52.202;0.154;2023-04-15T10:34:34;101913.53;;;14.78;100.00
70407;BME280;57821;52.202;0.154;2023-04-15T10:37:31;101909.16;;;14.88;100.00
70407;BME280;57821;52.202;0.154;2023-04-15T10:43:24;101920.28;;;15.36;100.00
70407;BME280;57821;52.202;0.154;2023-04-15T10:46:11;101920.22;;;15.46;100.00
70407;BME280;57821;52.202;0.154;2023-04-15T10:49:06;101934.09;;;15.62;100.00
70407;BME280;57821;52.202;0.154;2023-04-15T10:51:57;101935.78;;;15.72;100.00
70407;BME280;57821;52.202;0.154;2023-04-15T10:54:44;101936.50;;;15.91;100.00
70407;BME280;57821;52.202;0.154;2023-04-15T10:57:37;101931.19;;;16.03;100.00
70407;BME280;57821;52.202;0.154;2023-04-15T11:00:25;101937.16;;;16.22;100.00
70407;BME280;57821;52.202;0.154;2023-04-15T11:03:12;101938.81;;;16.35;100.00
70407;BME280;57821;52.202;0.154;2023-04-15T11:05:59;101937.00;;;16.40;100.00
70407;BME280;57821;52.202;0.154;2023-04-15T11:08:59;101950.09;;;16.37;100.00
70407;BME280;57821;52.202;0.154;2023-04-15T11:14:52;101952.28;;;15.82;100.00
70407;BME280;57821;52.202;0.154;2023-04-15T11:17:39;101948.81;;;15.80;100.00
70407;BME280;57821;52.202;0.154;2023-04-15T11:20:26;101959.28;;;15.77;100.00
70407;BME280;57821;52.202;0.154;2023-04-15T11:23:13;101961.84;;;15.87;100.00
70407;BME280;57821;52.202;0.154;2023-04-15T11:26:03;101950.47;;;15.94;100.00
70407;BME280;57821;52.202;0.154;2023-04-15T11:28:51;101966.81;;;16.21;100.00
70407;BME280;57821;52.202;0.154;2023-04-15T11:31:37;101964.00;;;16.43;100.00
70407;BME280;57821;52.202;0.154;2023-04-15T11:34:24;101969.94;;;16.70;100.00
70407;BME280;57821;52.202;0.154;2023-04-15T11:37:11;101976.78;;;16.83;100.00
70407;BME280;57821;52.202;0.154;2023-04-15T11:39:58;101988.16;;;16.82;100.00
70407;BME280;57821;52.202;0.154;2023-04-15T11:42:45;101986.41;;;16.78;100.00
70407;BME280;57821;52.202;0.154;2023-04-15T11:45:36;101993.50;;;16.67;100.00
70407;BME280;57821;52.202;0.154;2023-04-15T11:48:32;101991.88;;;16.51;100.00
70407;BME280;57821;52.202;0.154;2023-04-15T11:51:19;101994.59;;;16.41;100.00
70407;BME280;57821;52.202;0.154;2023-04-15T11:54:06;101991.97;;;16.41;100.00
70407;BME280;57821;52.202;0.154;2023-04-15T11:56:53;101984.03;;;16.51;100.00
70407;BME280;57821;52.202;0.154;2023-04-15T11:59:43;101990.94;;;16.61;100.00
70407;BME280;57821;52.202;0.154;2023-04-15T12:02:35;101997.91;;;16.65;100.00
70407;BME280;57821;52.202;0.154;2023-04-15T12:05:23;101994.31;;;16.75;100.00
70407;BME280;57821;52.202;0.154;2023-04-15T12:08:10;101988.03;;;16.91;100.00
70407;BME280;57821;52.202;0.154;2023-04-15T12:10:58;101989.66;;;17.01;100.00
70407;BME280;57821;52.202;0.154;2023-04-15T12:13:46;102000.88;;;17.15;100.00
70407;BME280;57821;52.202;0.154;2023-04-15T12:16:39;101998.13;;;17.24;100.00
70407;BME280;57821;52.202;0.154;2023-04-15T12:22:23;102010.44;;;17.19;100.00
70407;BME280;57821;52.202;0.154;2023-04-15T12:25:09;102017.53;;;17.11;100.00
70407;BME280;57821;52.202;0.154;2023-04-15T12:27:56;102022.00;;;17.00;96.23
70407;BME280;57821;52.202;0.154;2023-04-15T12:30:49;102016.16;;;16.74;97.73
70407;BME280;57821;52.202;0.154;2023-04-15T12:33:37;102028.53;;;16.51;98.96
70407;BME280;57821;52.202;0.154;2023-04-15T12:36:24;102019.84;;;16.46;100.00
70407;BME280;57821;52.202;0.154;2023-04-15T12:39:11;102016.38;;;16.43;100.00
70407;BME280;57821;52.202;0.154;2023-04-15T12:41:58;102020.75;;;16.41;99.49
70407;BME280;57821;52.202;0.154;2023-04-15T12:44:45;102024.31;;;16.33;99.61
70407;BME280;57821;52.202;0.154;2023-04-15T12:47:32;102030.53;;;16.18;99.86
70407;BME280;57821;52.202;0.154;2023-04-15T12:50:19;102041.00;;;16.14;99.78
70407;BME280;57821;52.202;0.154;2023-04-15T12:53:06;102043.63;;;16.17;100.00
70407;BME280;57821;52.202;0.154;2023-04-15T12:55:53;102039.25;;;16.17;100.00
70407;BME280;57821;52.202;0.154;2023-04-15T12:58:40;102033.13;;;16.23;100.00
70407;BME280;57821;52.202;0.154;2023-04-15T13:01:27;102046.03;;;16.42;100.00
70407;BME280;57821;52.202;0.154;2023-04-15T13:04:14;102052.97;;;16.53;100.00
70407;BME280;57821;52.202;0.154;2023-04-15T13:07:02;102053.72;;;16.68;100.00
70407;BME280;57821;52.202;0.154;2023-04-15T13:09:49;102051.94;;;16.72;100.00
70407;BME280;57821;52.202;0.154;2023-04-15T13:12:35;102051.13;;;16.68;100.00
70407;BME280;57821;52.202;0.154;2023-04-15T13:15:22;102066.81;;;16.71;100.00
70407;BME280;57821;52.202;0.154;2023-04-15T13:18:09;102060.75;;;16.63;100.00
70407;BME280;57821;52.202;0.154;2023-04-15T13:20:56;102063.44;;;16.53;100.00
70407;BME280;57821;52.202;0.154;2023-04-15T13:23:43;102065.31;;;16.35;98.10
70407;BME280;57821;52.202;0.154;2023-04-15T13:26:30;102072.31;;;16.27;99.86
70407;BME280;57821;52.202;0.154;2023-04-15T13:29:17;102072.41;;;16.18;100.00
70407;BME280;57821;52.202;0.154;2023-04-15T13:32:04;102077.66;;;16.08;98.69
70407;BME280;57821;52.202;0.154;2023-04-15T13:34:51;102083.78;;;16.13;100.00
70407;BME280;57821;52.202;0.154;2023-04-15T13:37:37;102084.47;;;16.37;100.00
70407;BME280;57821;52.202;0.154;2023-04-15T13:40:24;102084.22;;;16.77;99.63
70407;BME280;57821;52.202;0.154;2023-04-15T13:43:11;102077.03;;;16.99;96.98
70407;BME280;57821;52.202;0.154;2023-04-15T13:45:58;102087.38;;;17.15;99.61
70407;BME280;57821;52.202;0.154;2023-04-15T13:48:45;102090.88;;;17.14;98.38
70407;BME280;57821;52.202;0.154;2023-04-15T13:51:32;102092.41;;;17.34;98.13
70407;BME280;57821;52.202;0.154;2023-04-15T13:54:18;102094.19;;;17.32;97.49
70407;BME280;57821;52.202;0.154;2023-04-15T13:57:05;102096.09;;;17.14;96.31
70407;BME280;57821;52.202;0.154;2023-04-15T13:59:52;102091.91;;;16.97;98.06
70407;BME280;57821;52.202;0.154;2023-04-15T14:02:39;102099.06;;;16.75;96.29
70407;BME280;57821;52.202;0.154;2023-04-15T14:05:26;102091.31;;;16.63;97.69
70407;BME280;57821;52.202;0.154;2023-04-15T14:08:13;102100.69;;;16.91;100.00
70407;BME280;57821;52.202;0.154;2023-04-15T14:11:00;102105.19;;;17.65;100.00
70407;BME280;57821;52.202;0.154;2023-04-15T14:13:47;102109.19;;;17.98;96.63
70407;BME280;57821;52.202;0.154;2023-04-15T14:16:34;102106.69;;;17.88;95.02
70407;BME280;57821;52.202;0.154;2023-04-15T14:19:21;102113.06;;;17.65;91.27
70407;BME280;57821;52.202;0.154;2023-04-15T14:22:07;102106.47;;;17.27;92.71
70407;BME280;57821;52.202;0.154;2023-04-15T14:24:54;102105.41;;;17.44;95.63
70407;BME280;57821;52.202;0.154;2023-04-15T14:27:41;102109.78;;;18.17;96.55
70407;BME280;57821;52.202;0.154;2023-04-15T14:30:28;102111.34;;;18.88;91.81
70407;BME280;57821;52.202;0.154;2023-04-15T14:33:15;102125.91;;;19.58;91.67
70407;BME280;57821;52.202;0.154;2023-04-15T14:36:02;102116.56;;;20.27;90.02
70407;BME280;57821;52.202;0.154;2023-04-15T14:38:49;102128.31;;;20.89;91.74
70407;BME280;57821;52.202;0.154;2023-04-15T14:41:36;102127.66;;;21.49;87.15